Kealakekua, Hawaii
Current Conditions -  °F | °C
As of 9:53 PM on Thursday 23 Oct 2014 (Local Time) from PHKO Reporting Station
Broken Clouds Broken Clouds  
Wind Chill: 80°   Ceiling: 4800
Heat Index: 82°   Visibility: 10mi
Dew Point: 67°   Wind: 9mph
Humidity: 64%   Direction: 30°NNE
Pressure: 30.02"   Gusts: NA
Location:  19.51°N, 155.91°W
Report Text: PHKO 240753Z 03008KT 10SM FEW026 BKN048 BKN060 27/19 A3002 RMK AO2 SLP166 T02670194
Loading
Personal Weather Stations






























Interactive Weather Map
Tropical Storm Tracking
New forecast layout! Learn more

10-Day Weather Forecast

Advertisements
Track Severe Weather on mobile